Pede Vento — CRLZ9 — position and weather

sailwx.info

Track history (hours):
 
Tides and Currents Weather Stations Pressure Air Temp Water Temp Dewpoint Dewpoint Depression Visibility Wind Speed Wind Dir Waves Ship Positions

Pede Vento

Last reported at 2015-May-24 14:21 UTC. Time now 2015-May-27 13:51 UTC.
Position N 38°42' W 009°13'.

Length 12 m.

Type: Sailing vessel. MMSI: 263819560.

Date/timePositionNaut miles runAvg speedWind from/ knotsBaromVisibWave heightAir tempDewpointWater temp
2015-May-24 14:21N 38°42' W 009°13'5 5.6
2015-May-24 13:27N 38°41' W 009°19'4 4.9
2015-May-24 12:33N 38°38' W 009°23'3 3.3
2015-May-24 11:31N 38°40' W 009°20'6 6.4
2015-May-24 10:32N 38°41' W 009°12'2 2.0
2015-May-24 09:33N 38°42' W 009°10'0 0.0
2015-May-23 17:06N 38°42' W 009°10'0 0.0
2015-May-21 22:26N 38°42' W 009°10'0 0.0
2015-May-21 21:15N 38°42' W 009°10'0 0.0
2015-May-21 12:32N 38°42' W 009°10'0 0.0
2015-May-21 11:32N 38°42' W 009°10'0 0.0
2015-May-21 06:26N 38°42' W 009°10'0 0.0
2015-May-21 04:14N 38°42' W 009°10'0 0.0
2015-May-21 03:14N 38°42' W 009°10'0 0.0
2015-May-21 02:08N 38°42' W 009°10'0 0.0
2015-May-20 23:14N 38°42' W 009°10'0 0.0
2015-May-20 18:08N 38°42' W 009°10'0 0.0
2015-May-20 17:20N 38°42' W 009°10'0 0.0
2015-May-20 15:20N 38°42' W 009°10'0 0.0
2015-May-20 13:20N 38°42' W 009°10'0 0.0
2015-May-20 12:26N 38°42' W 009°10'0 0.0
2015-May-20 11:20N 38°42' W 009°10'0 0.0
2015-May-20 10:26N 38°42' W 009°10'0 0.0
2015-May-20 04:29N 38°42' W 009°10'0 0.0
2015-May-20 03:32N 38°42' W 009°10'0 0.0
2015-May-20 02:26N 38°42' W 009°10'0 0.0
2015-May-20 00:32N 38°42' W 009°10'0 0.0
2015-May-19 22:32N 38°42' W 009°10'0 0.0
2015-May-19 21:14N 38°42' W 009°10'0 0.0
2015-May-19 15:12N 38°42' W 009°10'  
Track history (hours):
 
Tides and Currents Weather Stations Pressure Air Temp Water Temp Dewpoint Dewpoint Depression Visibility Wind Speed Wind Dir Waves Ship Positions

Pede Vento

Last reported at 2015-May-24 14:21 UTC. Time now 2015-May-27 13:51 UTC.
Position N 38°42' W 009°13'.

Length 12 m.

Type: Sailing vessel. MMSI: 263819560.

Date/timePositionNaut miles runAvg speedWind from/ knotsBaromVisibWave heightAir tempDewpointWater temp
2015-May-24 14:21N 38°42' W 009°13'5 5.6
2015-May-24 13:27N 38°41' W 009°19'4 4.9
2015-May-24 12:33N 38°38' W 009°23'3 3.3
2015-May-24 11:31N 38°40' W 009°20'6 6.4
2015-May-24 10:32N 38°41' W 009°12'2 2.0
2015-May-24 09:33N 38°42' W 009°10'0 0.0
2015-May-23 17:06N 38°42' W 009°10'0 0.0
2015-May-21 22:26N 38°42' W 009°10'0 0.0
2015-May-21 21:15N 38°42' W 009°10'0 0.0
2015-May-21 12:32N 38°42' W 009°10'0 0.0
2015-May-21 11:32N 38°42' W 009°10'0 0.0
2015-May-21 06:26N 38°42' W 009°10'0 0.0
2015-May-21 04:14N 38°42' W 009°10'0 0.0
2015-May-21 03:14N 38°42' W 009°10'0 0.0
2015-May-21 02:08N 38°42' W 009°10'0 0.0
2015-May-20 23:14N 38°42' W 009°10'0 0.0
2015-May-20 18:08N 38°42' W 009°10'0 0.0
2015-May-20 17:20N 38°42' W 009°10'0 0.0
2015-May-20 15:20N 38°42' W 009°10'0 0.0
2015-May-20 13:20N 38°42' W 009°10'0 0.0
2015-May-20 12:26N 38°42' W 009°10'0 0.0
2015-May-20 11:20N 38°42' W 009°10'0 0.0
2015-May-20 10:26N 38°42' W 009°10'0 0.0
2015-May-20 04:29N 38°42' W 009°10'0 0.0
2015-May-20 03:32N 38°42' W 009°10'0 0.0
2015-May-20 02:26N 38°42' W 009°10'0 0.0
2015-May-20 00:32N 38°42' W 009°10'0 0.0
2015-May-19 22:32N 38°42' W 009°10'0 0.0
2015-May-19 21:14N 38°42' W 009°10'0 0.0
2015-May-19 15:12N 38°42' W 009°10'  

Dump ship's entire track history